Data for 02/26/2014

Time Sea-Level Adjusted Pressure Absolute Pressure Temperature Relative Humidity Dew Point   
(mb) (inHg) (mb) (inHg) (C) (F) (%) (C) (F)
00:05 1022 30.18 851 25.13 -17 1.4 83 -19.3 -2.7
00:10 1022 30.18 851 25.13 -16.8 1.8 83 -19 -2.2
00:15 1022 30.18 851 25.13 -16.9 1.5 84 -19.1 -2.3
00:20 1022 30.18 851 25.13 -16.5 2.4 81 -19.1 -2.3
00:25 1022 30.18 851 25.13 -16.2 2.9 78 -19.2 -2.5
00:30 1022 30.18 851 25.13 -16.9 1.7 81 -19.4 -2.9
00:35 1022 30.18 852 25.16 -17.3 0.9 86 -19.2 -2.5
00:40 1023 30.21 852 25.16 -16.7 1.9 84 -18.8 -1.9
00:45 1023 30.21 852 25.16 -16.7 2 81 -19.2 -2.5
00:50 1023 30.21 852 25.16 -17 1.5 82 -19.3 -2.8
00:55 1023 30.21 852 25.16 -17 1.4 84 -19.1 -2.5
01:00 1023 30.21 852 25.16 -16.7 1.9 83 -19 -2.1
01:05 1023 30.21 852 25.16 -16.3 2.7 80 -18.9 -2.1
01:10 1023 30.21 852 25.16 -16.1 3.1 79 -18.9 -2
01:15 1023 30.21 852 25.16 -16.2 2.8 81 -18.8 -1.8
01:20 1023 30.21 852 25.16 -16.3 2.8 82 -18.7 -1.6
01:25 1023 30.21 852 25.16 -16.1 3.1 81 -18.6 -1.4
01:30 1023 30.21 852 25.16 -16.2 2.8 79 -19.1 -2.4
01:35 1023 30.21 852 25.16 -17.5 0.5 82 -19.8 -3.7
01:40 1023 30.21 852 25.16 -17.7 0.2 82 -20 -3.9
01:45 1022 30.18 852 25.16 -17.2 1.1 79 -19.9 -3.9
01:50 1022 30.18 852 25.16 -16.7 1.9 77 -19.9 -3.8
01:55 1022 30.18 852 25.16 -16.5 2.2 77 -19.7 -3.5
02:00 1022 30.18 852 25.16 -17 1.4 80 -19.7 -3.5
02:05 1022 30.18 852 25.16 -17 1.4 80 -19.6 -3.4
02:10 1022 30.18 851 25.13 -17 1.4 80 -19.7 -3.4
02:15 1022 30.18 851 25.13 -17.1 1.2 80 -19.8 -3.7
02:20 1022 30.18 851 25.13 -17.1 1.1 79 -20 -4
02:25 1022 30.18 851 25.13 -16.8 1.8 78 -19.7 -3.5
02:30 1022 30.18 851 25.13 -16.5 2.3 78 -19.6 -3.2
02:35 1022 30.18 851 25.13 -16.4 2.5 77 -19.5 -3.1
02:40 1022 30.18 851 25.13 -16.3 2.7 78 -19.3 -2.8
02:45 1022 30.18 851 25.13 -16.1 3 77 -19.2 -2.6
02:50 1022 30.18 851 25.13 -16.1 3.1 77 -19.2 -2.5
02:55 1022 30.18 851 25.13 -15.9 3.3 77 -19.1 -2.4
03:00 1022 30.18 851 25.13 -15.8 3.6 76 -19.1 -2.3
03:05 1022 30.18 851 25.13 -15.6 4 76 -19 -2.1
03:10 1021 30.15 851 25.13 -15.5 4.2 75 -18.9 -2.1
03:15 1021 30.15 851 25.13 -15.5 4.1 75 -19 -2.2
03:20 1021 30.15 850 25.1 -15.3 4.4 73 -19.1 -2.3
03:25 1021 30.15 850 25.1 -15.2 4.6 73 -19.1 -2.3
03:30 1021 30.15 850 25.1 -15.1 4.8 73 -19 -2.1
03:35 1021 30.15 850 25.1 -15.6 3.9 75 -19.1 -2.5
03:40 1021 30.15 850 25.1 -15.7 3.7 75 -19.2 -2.6
03:45 1021 30.15 850 25.1 -15.7 3.8 75 -19.2 -2.5
03:50 1021 30.15 850 25.1 -15.3 4.5 73 -19 -2.3
03:55 1021 30.15 850 25.1 -15.3 4.5 74 -18.9 -2.1
04:00 1021 30.15 850 25.1 -15.3 4.4 74 -18.9 -2.1
04:05 1021 30.15 851 25.13 -15.3 4.5 74 -18.9 -2
04:10 1021 30.15 850 25.1 -15.2 4.7 74 -18.8 -1.9
04:15 1021 30.15 850 25.1 -15.2 4.6 75 -18.8 -1.8
04:20 1021 30.15 851 25.13 -15.3 4.4 75 -18.8 -1.8
04:25 1021 30.15 851 25.13 -15.4 4.4 75 -18.8 -1.9
04:30 1021 30.15 851 25.13 -15.4 4.3 75 -18.8 -1.9
04:35 1021 30.15 851 25.13 -15.7 3.8 76 -18.9 -2.1
04:40 1021 30.15 850 25.1 -15.7 3.7 76 -19.1 -2.3
04:45 1021 30.15 850 25.1 -15.8 3.5 76 -19.1 -2.4
04:50 1021 30.15 850 25.1 -15.8 3.5 76 -19.1 -2.4
04:55 1021 30.15 850 25.1 -15.6 3.8 76 -19 -2.2
05:00 1021 30.15 850 25.1 -15.5 4.1 75 -19 -2.1
05:05 1021 30.15 850 25.1 -15.6 3.9 75 -19.1 -2.4
05:10 1021 30.15 850 25.1 -16 3.2 76 -19.3 -2.8
05:15 1021 30.15 850 25.1 -16.3 2.6 76 -19.6 -3.2
05:20 1021 30.15 850 25.1 -16.8 1.8 79 -19.7 -3.4
05:25 1021 30.15 850 25.1 -17.2 1 80 -19.9 -3.8
05:30 1021 30.15 850 25.1 -17.4 0.7 79 -20.2 -4.3
05:35 1021 30.15 850 25.1 -17.6 0.3 81 -20.1 -4.2
05:40 1021 30.15 851 25.13 -17.5 0.5 81 -20 -4
05:45 1021 30.15 851 25.13 -17.5 0.6 81 -20 -3.9
05:50 1021 30.15 851 25.13 -17.3 0.8 80 -20 -4
05:55 1021 30.15 851 25.13 -17.2 1 81 -19.8 -3.6
06:00 1021 30.15 851 25.13 -17 1.5 80 -19.6 -3.3
06:05 1022 30.18 851 25.13 -16.9 1.6 80 -19.5 -3.2
06:10 1022 30.18 851 25.13 -17 1.4 79 -19.9 -3.8
06:15 1022 30.18 851 25.13 -17.6 0.4 81 -20.1 -4.2
06:20 1022 30.18 851 25.13 -18 -0.4 83 -20.2 -4.4
06:25 1022 30.18 851 25.13 -18 -0.5 84 -20.2 -4.3
06:30 1022 30.18 851 25.13 -17.9 -0.1 84 -20 -3.9
06:35 1022 30.18 851 25.13 -17.5 0.5 83 -19.7 -3.5
06:40 1022 30.18 851 25.13 -17.3 0.9 83 -19.5 -3.2
06:45 1022 30.18 851 25.13 -17.2 1 82 -19.6 -3.2
06:50 1022 30.18 851 25.13 -17.3 0.9 82 -19.6 -3.3
06:55 1022 30.18 851 25.13 -17.4 0.7 82 -19.7 -3.5
07:00 1022 30.18 851 25.13 -17.5 0.6 83 -19.7 -3.4
07:05 1022 30.18 851 25.13 -17.5 0.6 84 -19.5 -3.1
07:10 1022 30.18 851 25.13 -17.5 0.5 85 -19.5 -3.1
07:15 1022 30.18 851 25.13 -17.5 0.5 84 -19.6 -3.3
07:20 1022 30.18 851 25.13 -17.6 0.3 83 -19.8 -3.7
07:25 1022 30.18 851 25.13 -17.9 -0.2 84 -20 -4
07:30 1022 30.18 851 25.13 -17.9 -0.3 84 -20.1 -4.1
07:35 1022 30.18 851 25.13 -17.8 -0 84 -19.8 -3.7
07:40 1022 30.18 851 25.13 -17.4 0.7 85 -19.3 -2.7
07:45 1022 30.18 851 25.13 -17.1 1.2 81 -19.6 -3.2
07:50 1022 30.18 851 25.13 -17.5 0.4 84 -19.6 -3.3
07:55 1022 30.18 851 25.13 -17.5 0.4 83 -19.8 -3.6
08:00 1022 30.18 851 25.13 -17.6 0.4 84 -19.7 -3.4
08:05 1022 30.18 851 25.13 -17.8 -0.1 84 -19.9 -3.8
08:10 1022 30.18 851 25.13 -18.1 -0.6 83 -20.3 -4.6
08:15 1022 30.18 851 25.13 -18.3 -0.9 86 -20.1 -4.2
08:20 1022 30.18 851 25.13 -17.9 -0.2 85 -19.8 -3.7
08:25 1022 30.18 851 25.13 -17.8 0.1 78 -20.6 -5.2
08:30 1022 30.18 851 25.13 -18.3 -0.9 83 -20.5 -4.9
08:35 1022 30.18 851 25.13 -18.1 -0.6 83 -20.3 -4.5
08:40 1022 30.18 851 25.13 -17.5 0.6 84 -19.5 -3.1
08:45 1022 30.18 851 25.13 -16.8 1.8 81 -19.3 -2.7
08:50 1022 30.18 851 25.13 -16.9 1.6 80 -19.6 -3.3
08:55 1022 30.18 851 25.13 -16.9 1.6 82 -19.3 -2.7
09:00 1022 30.18 851 25.13 -15.9 3.3 79 -18.7 -1.7
09:05 1022 30.18 851 25.13 -15.1 4.8 76 -18.4 -1.1
09:10 1022 30.18 851 25.13 -15 5 75 -18.5 -1.2
09:15 1022 30.18 851 25.13 -14.9 5.1 74 -18.5 -1.4
09:20 1022 30.18 851 25.13 -14.9 5.2 74 -18.5 -1.3
09:25 1022 30.18 851 25.13 -14.7 5.5 75 -18.3 -0.9
09:30 1022 30.18 851 25.13 -14.3 6.3 73 -18.2 -0.7
09:35 1022 30.18 851 25.13 -13.4 7.9 69 -18 -0.4
09:40 1022 30.18 851 25.13 -12.8 9 67 -17.8 0
09:45 1022 30.18 851 25.13 -12.4 9.6 65 -17.7 0.1
09:50 1022 30.18 851 25.13 -12.6 9.3 66 -17.8 0
09:55 1022 30.18 851 25.13 -12.3 9.8 65 -17.7 0.2
10:00 1022 30.18 851 25.13 -11.6 11.1 63 -17.4 0.7
10:05 1022 30.18 851 25.13 -11.4 11.6 62 -17.3 0.9
10:10 1022 30.18 851 25.13 -11.1 12 62 -17.1 1.2
10:15 1022 30.18 851 25.13 -10.7 12.7 60 -17.1 1.2
10:20 1022 30.18 851 25.13 -9.8 14.4 57 -16.7 1.9
10:25 1022 30.18 851 25.13 -9.4 15 56 -16.7 1.9
10:30 1021 30.15 851 25.13 -9.1 15.7 56 -16.4 2.5
10:35 1022 30.18 851 25.13 -9.6 14.7 57 -16.6 2.2
10:40 1021 30.15 851 25.13 -9.8 14.5 57 -16.7 2
10:45 1021 30.15 851 25.13 -9.7 14.5 57 -16.7 2
10:50 1021 30.15 851 25.13 -8.8 16.1 55 -16.3 2.6
10:55 1021 30.15 851 25.13 -9.1 15.6 55 -16.5 2.3
11:00 1021 30.15 851 25.13 -9.4 15 55 -16.9 1.6
11:05 1021 30.15 850 25.1 -10 14.1 58 -16.7 1.9
11:10 1021 30.15 850 25.1 -9.5 14.9 54 -17.1 1.2
11:15 1021 30.15 850 25.1 -9.1 15.7 54 -16.8 1.8
11:20 1021 30.15 850 25.1 -10.3 13.5 59 -16.8 1.8
11:25 1021 30.15 850 25.1 -10 14.1 53 -17.8 0
11:30 1021 30.15 850 25.1 -10.5 13.2 59 -17 1.5
11:35 1021 30.15 850 25.1 -9.7 14.5 56 -17 1.4
11:40 1021 30.15 850 25.1 -9 15.8 53 -16.9 1.5
11:45 1021 30.15 850 25.1 -8.5 16.6 52 -16.8 1.7
11:50 1021 30.15 850 25.1 -8.3 17.1 53 -16.3 2.7
11:55 1021 30.15 850 25.1 -8 17.6 50 -16.6 2
12:00 1021 30.15 850 25.1 -8 17.7 54 -15.7 3.7
12:05 1021 30.15 850 25.1 -8.1 17.5 54 -15.8 3.5
12:10 1021 30.15 850 25.1 -8 17.5 51 -16.5 2.3
12:15 1021 30.15 850 25.1 -8.1 17.5 51 -16.5 2.3
12:20 1021 30.15 850 25.1 -8.2 17.3 51 -16.5 2.3
12:25 1021 30.15 850 25.1 -7.9 17.9 51 -16.2 2.8
12:30 1021 30.15 850 25.1 -7.7 18.1 52 -16 3.2
12:35 1021 30.15 850 25.1 -8.6 16.6 56 -15.8 3.5
12:40 1020 30.12 850 25.1 -8.6 16.6 53 -16.4 2.5
12:45 1020 30.12 850 25.1 -8.3 17 54 -16 3.3
12:50 1020 30.12 849 25.07 -8.6 16.6 55 -16 3.2
12:55 1020 30.12 849 25.07 -7.7 18.1 52 -16 3.2
13:00 1020 30.12 849 25.07 -7 19.4 51 -15.6 3.9
13:05 1020 30.12 849 25.07 -6.9 19.5 51 -15.4 4.3
13:10 1020 30.12 849 25.07 -7 19.4 51 -15.6 3.8
13:15 1020 30.12 849 25.07 -7 19.3 51 -15.6 4
13:20 1020 30.12 849 25.07 -7 19.3 51 -15.6 4
13:25 1020 30.12 849 25.07 -7 19.4 49 -16 3.2
13:30 1020 30.12 849 25.07 -6.8 19.7 51 -15.4 4.3
13:35 1020 30.12 849 25.07 -6.8 19.8 50 -15.5 4.1
13:40 1020 30.12 849 25.07 -6.6 20.2 50 -15.2 4.6
13:45 1019 30.09 849 25.07 -6.5 20.4 49 -15.5 4.1
13:50 1019 30.09 849 25.07 -6.2 20.8 47 -15.8 3.5
13:55 1019 30.09 849 25.07 -6.4 20.5 48 -15.6 3.9
14:00 1019 30.09 848 25.04 -5.7 21.8 47 -15.3 4.5
14:05 1019 30.09 848 25.04 -5.6 21.9 46 -15.4 4.3
14:10 1019 30.09 848 25.04 -5.6 21.9 45 -15.7 3.8
14:15 1019 30.09 848 25.04 -5.1 22.8 45 -15.2 4.6
14:20 1019 30.09 848 25.04 -5.8 21.6 48 -15.1 4.9
14:25 1019 30.09 848 25.04 -7 19.4 52 -15.3 4.5
14:30 1019 30.09 848 25.04 -6.3 20.7 51 -14.9 5.1
14:35 1019 30.09 848 25.04 -5.4 22.3 47 -15.1 4.8
14:40 1018 30.06 848 25.04 -4.8 23.4 46 -14.8 5.4
14:45 1018 30.06 848 25.04 -5.2 22.6 46 -15.1 4.9
14:50 1018 30.06 848 25.04 -5.7 21.7 48 -15 5
14:55 1018 30.06 847 25.01 -5.9 21.4 50 -14.8 5.4
15:00 1018 30.06 847 25.01 -4.9 23.3 46 -14.7 5.6
15:05 1018 30.06 847 25.01 -4.9 23.2 48 -14.4 6
15:10 1018 30.06 847 25.01 -5 22.9 46 -14.9 5.2
15:15 1018 30.06 847 25.01 -5.3 22.6 48 -14.6 5.7
15:20 1018 30.06 847 25.01 -5.5 22.2 47 -15.1 4.9
15:25 1018 30.06 847 25.01 -5.6 21.9 49 -14.8 5.3
15:30 1018 30.06 847 25.01 -5.6 21.9 48 -15.1 4.9
15:35 1018 30.06 847 25.01 -5.5 22 48 -14.9 5.2
15:40 1018 30.06 847 25.01 -5.6 22 50 -14.5 5.9
15:45 1018 30.06 847 25.01 -5.2 22.7 47 -14.9 5.2
15:50 1018 30.06 847 25.01 -4.8 23.3 46 -14.9 5.2
15:55 1017 30.03 847 25.01 -5.1 22.8 47 -14.8 5.3
16:00 1017 30.03 847 25.01 -5 23 46 -14.9 5.2
16:05 1017 30.03 847 25.01 -4.5 23.9 45 -14.8 5.4
16:10 1017 30.03 847 25.01 -4.7 23.5 45 -14.9 5.2
16:15 1017 30.03 846 24.98 -4.7 23.5 46 -14.7 5.5
16:20 1017 30.03 846 24.98 -4.9 23.1 47 -14.5 5.9
16:25 1017 30.03 846 24.98 -4.7 23.5 46 -14.7 5.6
16:30 1017 30.03 846 24.98 -4.5 23.9 45 -14.7 5.5
16:35 1017 30.03 846 24.98 -4.6 23.8 45 -14.9 5.3
16:40 1017 30.03 846 24.98 -4.8 23.3 46 -14.8 5.4
16:45 1017 30.03 846 24.98 -4.9 23.3 47 -14.5 5.8
16:50 1017 30.03 846 24.98 -5.1 22.8 46 -14.9 5.1
16:55 1017 30.03 846 24.98 -5.1 22.8 47 -14.7 5.5
17:00 1017 30.03 846 24.98 -5.1 22.9 46 -14.9 5.2
17:05 1017 30.03 846 24.98 -5 23 47 -14.5 5.9
17:10 1017 30.03 846 24.98 -5 23.1 47 -14.6 5.8
17:15 1017 30.03 846 24.98 -4.8 23.3 46 -14.7 5.6
17:20 1017 30.03 846 24.98 -4.6 23.7 44 -15.1 4.9
17:25 1016 30 846 24.98 -4.6 23.7 45 -14.8 5.4
17:30 1016 30 846 24.98 -5 23 47 -14.7 5.6
17:35 1016 30 846 24.98 -5.2 22.6 48 -14.6 5.8
17:40 1016 30 845 24.95 -5.6 21.9 49 -14.8 5.4
17:45 1016 30 845 24.95 -5.2 22.7 47 -14.8 5.3
17:50 1016 30 845 24.95 -5 22.9 47 -14.7 5.5
17:55 1016 30 845 24.95 -5.3 22.4 49 -14.5 5.9
18:00 1016 30 845 24.95 -6.6 20.1 52 -14.9 5.1
18:05 1016 30 845 24.95 -6.6 20.2 52 -14.8 5.4
18:10 1016 30 845 24.95 -6 21.2 50 -14.9 5.1
18:15 1016 30 845 24.95 -5.9 21.3 50 -14.8 5.3
18:20 1016 30 845 24.95 -5.8 21.6 51 -14.4 6
18:25 1016 30 845 24.95 -6.3 20.7 53 -14.4 6.2
18:30 1016 30 845 24.95 -6.8 19.7 54 -14.5 5.8
18:35 1016 30 845 24.95 -7.1 19.2 56 -14.6 5.8
18:40 1016 30 845 24.95 -7.4 18.6 58 -14.4 6.1
18:45 1016 30 845 24.95 -7.6 18.2 58 -14.6 5.8
18:50 1015 29.97 845 24.95 -7.7 18.1 57 -14.7 5.5
18:55 1015 29.97 845 24.95 -8 17.7 58 -14.9 5.2
19:00 1015 29.97 845 24.95 -8.2 17.3 60 -14.7 5.5
19:05 1015 29.97 845 24.95 -8.5 16.7 61 -14.7 5.5
19:10 1015 29.97 845 24.95 -9.1 15.7 63 -14.8 5.4
19:15 1015 29.97 845 24.95 -9.5 15 64 -15 4.9
19:20 1015 29.97 845 24.95 -9.7 14.5 64 -15.3 4.5
19:25 1015 29.97 845 24.95 -10 14 66 -15.3 4.5
19:30 1015 29.97 845 24.95 -10.3 13.5 67 -15.3 4.4
19:35 1015 29.97 845 24.95 -10.4 13.4 67 -15.4 4.2
19:40 1015 29.97 845 24.95 -10.4 13.4 67 -15.4 4.2
19:45 1015 29.97 845 24.95 -10.4 13.3 66 -15.6 3.9
19:50 1015 29.97 845 24.95 -10.4 13.2 66 -15.6 3.8
19:55 1015 29.97 845 24.95 -10.6 13 67 -15.6 3.9
20:00 1015 29.97 845 24.95 -10.7 12.8 67 -15.6 3.9
20:05 1015 29.97 844 24.92 -10.8 12.5 70 -15.3 4.5
20:10 1015 29.97 844 24.92 -11 12.3 71 -15.2 4.6
20:15 1015 29.97 844 24.92 -11.2 11.8 69 -15.8 3.5
20:20 1015 29.97 844 24.92 -11.3 11.6 70 -15.8 3.5
20:25 1015 29.97 844 24.92 -11.5 11.3 71 -15.8 3.5
20:30 1015 29.97 844 24.92 -11.8 10.7 72 -16 3.3
20:35 1015 29.97 844 24.92 -11.9 10.5 73 -15.9 3.4
20:40 1015 29.97 844 24.92 -12.2 10.1 74 -16 3.3
20:45 1015 29.97 844 24.92 -12.4 9.7 76 -15.8 3.6
20:50 1015 29.97 844 24.92 -12.4 9.7 76 -15.9 3.4
20:55 1015 29.97 844 24.92 -12.3 9.8 75 -15.9 3.4
21:00 1015 29.97 844 24.92 -12.1 10.2 74 -15.9 3.4
21:05 1015 29.97 844 24.92 -12.2 10 73 -16.1 3.1
21:10 1015 29.97 844 24.92 -12.1 10.3 73 -16 3.2
21:15 1015 29.97 844 24.92 -12 10.4 74 -15.8 3.5
21:20 1015 29.97 844 24.92 -11.9 10.6 72 -16 3.2
21:25 1015 29.97 844 24.92 -12.1 10.1 74 -16 3.3
21:30 1015 29.97 844 24.92 -12.3 9.9 74 -15.9 3.3
21:35 1014 29.94 844 24.92 -12.6 9.3 77 -15.9 3.4
21:40 1014 29.94 844 24.92 -12.9 8.8 78 -15.9 3.3
21:45 1014 29.94 844 24.92 -12.7 9.2 77 -15.9 3.4
21:50 1014 29.94 843 24.89 -12.6 9.3 78 -15.6 3.8
21:55 1014 29.94 843 24.89 -12.3 9.9 77 -15.5 4.2
22:00 1014 29.94 843 24.89 -12.2 10.1 76 -15.6 3.9
22:05 1014 29.94 843 24.89 -13 8.6 80 -15.7 3.7
22:10 1014 29.94 843 24.89 -13.3 8 81 -15.9 3.3
22:15 1014 29.94 843 24.89 -13.5 7.7 80 -16.2 2.8
22:20 1014 29.94 843 24.89 -13.7 7.4 79 -16.5 2.2
22:25 1014 29.94 843 24.89 -13.2 8.2 80 -15.9 3.4
22:30 1014 29.94 843 24.89 -11.7 11 73 -15.7 3.8
22:35 1014 29.94 843 24.89 -11.5 11.3 74 -15.3 4.4
22:40 1014 29.94 843 24.89 -11.3 11.6 73 -15.2 4.7
22:45 1014 29.94 843 24.89 -11.4 11.6 74 -15.1 4.9
22:50 1014 29.94 843 24.89 -11.6 11.1 75 -15.2 4.6
22:55 1013 29.91 843 24.89 -12 10.5 76 -15.5 4.2
23:00 1013 29.91 843 24.89 -12.3 9.8 76 -15.8 3.6
23:05 1013 29.91 842 24.86 -12.3 9.8 76 -15.7 3.7
23:10 1013 29.91 842 24.86 -12 10.3 76 -15.5 4.2
23:15 1013 29.91 842 24.86 -11.9 10.5 76 -15.3 4.5
23:20 1013 29.91 842 24.86 -11.9 10.5 80 -14.7 5.6
23:25 1013 29.91 842 24.86 -11.4 11.5 77 -14.7 5.5
23:30 1013 29.91 842 24.86 -10.7 12.7 77 -13.9 6.9
23:35 1013 29.91 842 24.86 -10.1 13.8 78 -13.3 8
23:40 1013 29.91 842 24.86 -10.2 13.7 78 -13.3 8
23:45 1013 29.91 842 24.86 -10.5 13 81 -13.2 8.3
23:50 1013 29.91 842 24.86 -10.8 12.5 77 -14.2 6.5
23:55 1013 29.91 842 24.86 -11.5 11.2 80 -14.4 6.1
24:00 1013 29.91 842 24.86 -11.7 11 82 -14.2 6.5